Latest Weather Observations for Orbost

IDV60801

Issued at 7:05 pm EST Tuesday 22 July 2014 (issued every 30 minutes, with the page automatically refreshed every 10 minutes)

About weather observations | Map of weather stations | Latest weather observations for VIC | Other Formats
Station Details ID: 084145 Name: ORBOST Lat: -37.69 Lon: 148.47 Height: 62.65 m
Data from the previous 72 hours. | See also: Recent months at Orbost
Date/Time
EST
Temp
°C
App
Temp
°C
Dew
Point
Rel
Hum
%
Delta-T
°C
Wind Press
QNH
hPa
Press
MSL
hPa
Rain
since 9 am
mm
Dir
 
Spd
km/h
Gust
km/h
Spd
kts
Gust
kts
22/07:00pm 6.8 4.7 5.6 92 0.5 N 6 7 3 4 1025.2 1025.3 0.0
22/06:30pm 7.2 5.4 5.3 88 0.8 NNW 4 4 2 2 1025.2 - 0.0
22/06:00pm 9.3 8.5 6.7 84 1.2 CALM 0 0 0 0 1025.1 1025.2 0.0
22/05:30pm 9.6 8.7 6.1 79 1.6 CALM 0 2 0 1 1024.9 - 0.0
22/05:00pm 10.8 9.2 6.2 73 2.1 S 4 7 2 4 1024.9 1025.0 0.0
22/04:30pm 11.8 10.2 6.3 69 2.6 S 4 6 2 3 1024.7 - 0.0
22/04:00pm 12.4 9.6 5.1 61 3.4 SSW 9 13 5 7 1024.7 1024.8 0.0
22/03:30pm 12.8 9.7 5.5 61 3.4 SW 11 15 6 8 1024.5 - 0.0
22/03:00pm 12.7 10.4 5.8 63 3.2 SSW 7 13 4 7 1024.3 1024.3 0.0
22/02:30pm 13.0 10.0 5.9 62 3.4 SW 11 15 6 8 1024.2 - 0.0
22/02:00pm 14.0 12.3 7.5 65 3.2 SW 6 13 3 7 1024.2 1024.2 0.0
22/01:30pm 13.6 11.7 7.6 67 3.0 W 7 13 4 7 1024.3 - 0.0
22/01:00pm 13.1 11.1 7.1 67 2.9 WNW 7 9 4 5 1024.5 1024.6 0.0
22/12:30pm 12.3 10.5 7.2 71 2.5 NW 6 9 3 5 1024.9 - 0.0
22/12:00pm 11.3 9.8 6.6 73 2.2 WNW 4 7 2 4 1025.4 1025.5 0.0
22/11:30am 10.6 8.4 6.2 74 2.1 NW 7 11 4 6 1025.8 - 0.0
22/11:00am 10.4 8.4 6.2 75 1.9 NW 6 7 3 4 1026.3 1026.4 0.0
22/10:30am 9.4 7.4 6.1 80 1.5 NW 6 7 3 4 1026.5 - 0.0
22/10:00am 8.1 6.4 5.9 86 1.0 WNW 4 6 2 3 1026.7 1026.8 0.0
22/09:30am 7.8 6.3 5.1 83 1.2 NW 2 4 1 2 1026.7 - 0.0
22/09:00am 7.6 5.4 5.4 86 1.0 NNW 6 9 3 5 1026.5 1026.6 0.0
22/08:30am 5.3 4.0 4.0 91 0.6 CALM 0 0 0 0 1026.3 - 0.0
22/08:00am 4.0 1.7 2.8 92 0.5 NNW 4 7 2 4 1025.9 1026.0 0.0
22/07:30am 3.9 2.0 2.7 92 0.5 NW 2 6 1 3 1025.5 - 0.0
22/07:00am 4.1 2.2 2.9 92 0.5 NW 2 6 1 3 1025.3 1025.4 0.0
22/06:30am 4.1 1.9 3.2 94 0.4 NNW 4 6 2 3 1025.1 - 0.0
22/06:00am 4.1 1.9 3.2 94 0.4 NNW 4 6 2 3 1024.7 1024.8 0.0
22/05:30am 4.2 2.8 3.5 95 0.3 CALM 0 0 0 0 1024.6 - 0.0
22/05:00am 4.4 3.0 3.5 94 0.4 CALM 0 0 0 0 1024.5 1024.6 0.0
22/04:30am 4.3 2.5 3.3 93 0.4 NNW 2 4 1 2 1024.4 - 0.0
22/04:00am 4.8 3.4 3.8 93 0.4 CALM 0 0 0 0 1024.5 1024.6 0.0
22/03:30am 5.1 3.4 4.1 93 0.4 N 2 4 1 2 1024.5 - 0.0
22/03:00am 4.4 1.8 3.4 93 0.4 N 6 7 3 4 1024.5 1024.6 0.0
22/02:30am 4.6 2.1 3.6 93 0.4 N 6 7 3 4 1024.7 - 0.0
22/02:00am 5.7 2.4 4.3 91 0.6 N 11 13 6 7 1024.7 1024.8 0.0
22/01:30am 6.1 3.3 5.1 93 0.4 N 9 11 5 6 1024.7 - 0.0
22/01:00am 4.0 1.2 3.1 94 0.4 N 7 7 4 4 1024.8 1024.9 0.0
22/12:30am 4.7 3.3 3.8 94 0.4 CALM 0 2 0 1 1025.0 - 0.0
22/12:00am 4.5 2.7 3.3 92 0.5 NNW 2 4 1 2 1025.1 1025.2 0.0
 
Date/Time
EST
Temp
°C
App
Temp
°C
Dew
Point
Rel
Hum
%
Delta-T
°C
Wind Press
QNH
hPa
Press
MSL
hPa
Rain
since 9 am
mm
Dir
 
Spd
km/h
Gust
km/h
Spd
kts
Gust
kts
21/11:30pm 5.9 3.6 4.7 92 0.5 N 6 7 3 4 1025.1 - 0.0
21/11:00pm 6.2 4.3 5.0 92 0.5 N 4 4 2 2 1025.2 1025.3 0.0
21/10:30pm 6.0 4.8 4.8 92 0.5 CALM 0 0 0 0 1025.3 - 0.0
21/10:00pm 5.9 4.0 4.7 92 0.5 NNE 4 6 2 3 1025.3 1025.4 0.0
21/09:30pm 6.4 4.8 4.7 89 0.7 NNE 2 4 1 2 1025.4 - 0.0
21/09:00pm 7.1 4.8 4.8 85 1.0 N 6 7 3 4 1025.5 1025.6 0.0
21/08:30pm 7.4 4.9 5.0 85 1.1 N 7 7 4 4 1025.5 - 0.0
21/08:00pm 7.3 4.9 5.1 86 1.0 N 7 7 4 4 1025.5 1025.6 0.0
21/07:30pm 6.5 4.2 5.0 90 0.7 N 6 6 3 3 1025.5 - 0.0
21/07:00pm 6.9 5.0 5.1 88 0.8 N 4 6 2 3 1025.5 1025.6 0.0
21/06:30pm 7.5 6.1 5.3 86 1.0 ENE 2 4 1 2 1025.2 - 0.0
21/06:00pm 8.3 6.8 5.2 81 1.4 E 2 2 1 1 1025.1 1025.2 0.0
21/05:30pm 9.3 7.8 5.1 75 1.9 SSE 2 4 1 2 1024.9 - 0.0
21/05:00pm 10.3 8.9 5.3 71 2.3 SSE 2 4 1 2 1024.7 1024.8 0.0
21/04:30pm 11.3 9.9 5.4 67 2.7 SE 2 6 1 3 1024.5 - 0.0
21/04:00pm 12.4 10.6 5.3 62 3.3 S 4 7 2 4 1024.2 1024.2 0.0
21/03:30pm 13.1 10.8 4.8 57 3.8 SSE 6 7 3 4 1024.1 - 0.0
21/03:00pm 12.8 10.7 3.7 54 4.1 SSE 4 7 2 4 1024.0 1024.0 0.0
21/02:30pm 12.7 10.7 4.4 57 3.8 SSE 4 7 2 4 1024.1 - 0.0
21/02:00pm 12.6 10.5 3.8 55 3.9 SW 4 4 2 2 1024.2 1024.2 0.0
21/01:30pm 12.4 10.4 4.6 59 3.6 SW 4 7 2 4 1024.4 - 0.0
21/01:00pm 12.3 10.6 5.7 64 3.1 W 4 7 2 4 1024.6 1024.7 0.0
21/12:30pm 12.0 10.3 6.1 67 2.8 WSW 4 7 2 4 1024.9 - 0.0
21/12:00pm 12.1 10.3 5.3 63 3.1 W 4 6 2 3 1025.3 1025.4 0.0
21/11:30am 11.3 9.7 6.2 71 2.4 WNW 4 6 2 3 1025.8 - 0.0
21/11:00am 10.7 9.0 5.7 71 2.3 NW 4 7 2 4 1026.2 1026.3 0.0
21/10:30am 10.1 8.3 5.3 72 2.2 NNW 4 6 2 3 1026.5 - 0.0
21/10:00am 8.8 7.1 5.7 81 1.4 NW 4 6 2 3 1026.8 1026.9 0.0
21/09:30am 8.4 6.6 5.3 81 1.4 NW 4 4 2 2 1026.9 - 0.0
21/09:00am 7.8 5.9 5.1 83 1.2 N 4 6 2 3 1026.9 1027.0 0.0
21/08:30am 5.8 3.7 4.0 88 0.8 N 4 6 2 3 1026.9 - 0.0
21/08:00am 4.3 2.5 3.3 93 0.4 NNW 2 4 1 2 1026.9 1027.0 0.0
21/07:30am 3.7 2.2 2.8 94 0.4 CALM 0 0 0 0 1026.7 - 0.0
21/07:00am 3.0 0.5 1.7 91 0.5 N 4 6 2 3 1026.5 1026.6 0.0
21/06:30am 4.7 3.2 3.0 89 0.7 CALM 0 0 0 0 1026.4 - 0.0
21/06:00am 4.8 2.9 3.1 89 0.7 N 2 2 1 1 1026.4 1026.5 0.0
21/05:30am 5.0 2.8 3.5 90 0.6 N 4 4 2 2 1026.3 - 0.0
21/05:00am 5.2 3.8 3.7 90 0.6 CALM 0 2 0 1 1026.1 1026.2 0.0
21/04:30am 5.2 3.5 4.2 93 0.4 N 2 4 1 2 1026.0 - 0.0
21/04:00am 5.1 3.8 4.2 94 0.4 CALM 0 0 0 0 1026.0 1026.1 0.0
21/03:30am 5.6 4.5 4.9 95 0.3 CALM 0 2 0 1 1026.2 - 0.0
21/03:00am 5.9 4.4 5.2 95 0.3 N 2 6 1 3 1026.3 1026.4 0.0
21/02:30am 6.3 4.5 5.6 95 0.3 NNE 4 6 2 3 1026.4 - 0.0
21/02:00am 6.6 5.3 5.9 95 0.3 NE 2 4 1 2 1026.3 1026.4 0.0
21/01:30am 7.1 5.8 6.2 94 0.4 NE 2 4 1 2 1026.5 - 0.0
21/01:00am 7.3 5.6 5.9 91 0.6 NNW 4 6 2 3 1026.5 1026.6 0.0
21/12:30am 8.3 6.9 7.1 92 0.6 WNW 4 6 2 3 1026.6 - 0.0
21/12:00am 8.4 7.3 7.0 91 0.6 NW 2 4 1 2 1027.0 1027.1 0.0
 
Date/Time
EST
Temp
°C
App
Temp
°C
Dew
Point
Rel
Hum
%
Delta-T
°C
Wind Press
QNH
hPa
Press
MSL
hPa
Rain
since 9 am
mm
Dir
 
Spd
km/h
Gust
km/h
Spd
kts
Gust
kts
20/11:30pm 8.7 7.7 7.2 90 0.7 NW 2 4 1 2 1027.2 - 0.0
20/11:00pm 8.9 7.4 7.0 88 0.9 N 4 6 2 3 1027.2 1027.3 0.0
20/10:30pm 9.3 7.9 7.3 87 0.9 N 4 6 2 3 1027.1 - 0.0
20/10:00pm 9.8 8.0 7.2 84 1.2 N 6 7 3 4 1027.3 1027.4 0.0
20/09:30pm 9.6 7.9 7.4 86 1.0 N 6 7 3 4 1027.5 - 0.0
20/09:00pm 9.6 7.9 7.5 87 1.0 N 6 6 3 3 1027.5 1027.6 0.0
20/08:30pm 9.6 8.3 7.5 87 1.0 N 4 6 2 3 1027.4 - 0.0
20/08:00pm 9.5 8.2 7.6 88 0.9 N 4 6 2 3 1027.3 1027.4 0.0
20/07:30pm 9.4 8.1 7.5 88 0.9 N 4 6 2 3 1027.2 - 0.0
20/07:00pm 9.4 8.4 7.3 87 1.0 N 2 4 1 2 1027.2 1027.3 0.0
20/06:30pm 10.1 9.5 7.3 83 1.3 CALM 0 0 0 0 1027.2 - 0.0
20/06:00pm 10.3 9.7 7.2 81 1.5 CALM 0 4 0 2 1026.9 1027.0 0.0
20/05:30pm 10.3 9.4 7.7 84 1.3 NW 2 6 1 3 1026.7 - 0.0
20/05:00pm 10.9 10.0 7.8 81 1.5 SW 2 4 1 2 1026.5 1026.6 0.0
20/04:30pm 11.4 11.0 8.1 80 1.6 CALM 0 0 0 0 1026.4 - 0.0
20/04:00pm 11.7 11.2 8.0 78 1.8 CALM 0 2 0 1 1026.3 1026.4 0.0
20/03:30pm 11.6 10.4 7.9 78 1.8 S 4 6 2 3 1026.4 - 0.0
20/03:00pm 11.8 11.3 7.7 76 2.0 CALM 0 0 0 0 1026.4 1026.5 0.0
20/02:30pm 12.1 10.7 7.2 72 2.4 SW 4 7 2 4 1026.3 - 0.0
20/02:00pm 12.5 10.9 6.3 66 2.9 WNW 4 7 2 4 1026.4 1026.5 0.0
20/01:30pm 12.6 10.6 6.4 66 3.0 W 6 11 3 6 1026.5 - 0.0
20/01:00pm 12.6 10.8 7.1 69 2.6 NW 6 9 3 5 1026.9 1027.0 0.0
20/12:30pm 12.3 10.3 7.2 71 2.5 W 7 11 4 6 1027.2 - 0.0
20/12:00pm 12.1 10.1 7.0 71 2.4 NW 7 11 4 6 1027.6 1027.7 0.0
20/11:30am 12.1 10.1 7.0 71 2.5 WNW 7 11 4 6 1027.7 - 0.0
20/11:00am 11.4 8.8 6.3 71 2.4 WNW 9 13 5 7 1028.0 1028.1 0.0
20/10:30am 11.2 9.1 6.7 74 2.1 NW 7 11 4 6 1028.1 - 0.0
20/10:00am 10.8 8.3 6.6 75 2.0 NNW 9 17 5 9 1028.2 1028.3 0.0
20/09:30am 10.0 7.4 6.0 76 1.9 NNW 9 15 5 8 1028.2 - 0.0
20/09:00am 9.6 7.0 6.0 78 1.6 NNW 9 13 5 7 1028.0 1028.1 0.4
20/08:30am 8.9 6.8 6.0 82 1.3 WNW 6 9 3 5 1028.0 - 0.4
20/08:00am 8.7 6.0 5.6 81 1.4 NNW 9 15 5 8 1027.9 1028.0 0.4
20/07:30am 8.4 4.5 5.5 82 1.3 N 15 20 8 11 1027.5 - 0.4
20/07:00am 8.0 5.3 5.6 85 1.1 NNW 9 15 5 8 1027.6 1027.7 0.4
20/06:30am 7.9 5.6 5.5 85 1.1 NNW 7 11 4 6 1027.4 - 0.4
20/06:00am 8.1 5.4 5.6 84 1.1 N 9 13 5 7 1027.1 1027.2 0.4
20/05:30am 8.1 5.5 5.9 86 1.0 N 9 13 5 7 1027.1 - 0.4
20/05:00am 8.1 6.0 5.9 86 1.0 NNW 6 9 3 5 1027.1 1027.2 0.4
20/04:30am 8.2 6.0 5.3 82 1.3 WNW 6 9 3 5 1027.2 - 0.4
20/04:00am 8.6 6.3 5.5 81 1.4 NW 7 11 4 6 1027.1 1027.2 0.4
20/03:30am 8.8 6.4 5.4 79 1.5 NNW 7 11 4 6 1027.3 - 0.4
20/03:00am 8.6 6.3 5.5 81 1.4 NNW 7 11 4 6 1027.5 1027.6 0.4
20/02:30am 8.8 6.6 5.5 80 1.5 NNW 6 7 3 4 1027.6 - 0.4
20/02:00am 8.8 6.7 5.9 82 1.3 NNW 6 9 3 5 1027.7 1027.8 0.4
20/01:30am 8.7 6.8 6.5 86 1.0 NW 6 9 3 5 1027.8 - 0.4
20/01:00am 8.5 6.4 6.8 89 0.8 NW 7 11 4 6 1028.0 1028.1 0.4
20/12:30am 8.1 6.0 6.6 90 0.7 WNW 7 9 4 5 1028.3 - 0.4
20/12:00am 7.7 5.8 6.5 92 0.5 WNW 6 9 3 5 1028.6 1028.7 0.4
 
Date/Time
EST
Temp
°C
App
Temp
°C
Dew
Point
Rel
Hum
%
Delta-T
°C
Wind Press
QNH
hPa
Press
MSL
hPa
Rain
since 9 am
mm
Dir
 
Spd
km/h
Gust
km/h
Spd
kts
Gust
kts
19/11:30pm 7.3 5.1 6.4 94 0.4 NW 7 9 4 5 1028.6 - 0.4
19/11:00pm 7.2 5.2 6.1 93 0.5 NW 6 7 3 4 1028.7 1028.8 0.4
19/10:30pm 8.2 6.3 6.8 91 0.7 NW 6 11 3 6 1028.9 - 0.4
19/10:00pm 8.6 7.2 7.4 92 0.6 WNW 4 7 2 4 1028.9 1029.0 0.4
19/09:30pm 8.6 6.6 7.2 91 0.7 WNW 7 9 4 5 1029.0 - 0.4
19/09:00pm 8.5 7.1 7.1 91 0.7 NW 4 6 2 3 1029.1 1029.2 0.4
19/08:30pm 8.7 7.2 6.8 88 0.9 NNW 4 6 2 3 1029.1 - 0.0
19/08:00pm 8.6 7.1 6.6 87 0.9 NNW 4 6 2 3 1029.0 1029.1 0.0
19/07:30pm 8.5 6.9 6.3 86 1.0 NW 4 6 2 3 1028.9 - 0.0

Other Formats:

Comma delimited format used in spreadsheet applications
http://www.bom.gov.au/fwo/IDV60801/IDV60801.95918.axf

JavaScript Object Notation format (JSON) in row-major order
http://www.bom.gov.au/fwo/IDV60801/IDV60801.95918.json